createdAt,value
2023-01-25T00:02:47.000Z,273.4
2023-01-25T00:04:12.000Z,273.4
2023-01-25T00:06:16.000Z,273.34
2023-01-25T00:07:40.000Z,273.34
2023-01-25T00:09:43.000Z,273.34
2023-01-25T00:11:08.000Z,273.4
2023-01-25T00:13:12.000Z,273.4
2023-01-25T00:14:36.000Z,273.4
2023-01-25T00:16:40.000Z,273.4
2023-01-25T00:18:04.000Z,273.4
2023-01-25T00:20:08.000Z,273.4
2023-01-25T00:21:32.000Z,273.4
2023-01-25T00:23:36.000Z,273.4
2023-01-25T00:25:00.000Z,273.46
2023-01-25T00:27:04.000Z,273.4
2023-01-25T00:28:28.000Z,273.46
2023-01-25T00:30:32.000Z,273.4
2023-01-25T00:31:57.000Z,273.4
2023-01-25T00:34:00.000Z,273.34
2023-01-25T00:35:25.000Z,273.4
2023-01-25T00:37:29.000Z,273.4
2023-01-25T00:40:18.000Z,273.4
2023-01-25T00:41:42.000Z,273.4
2023-01-25T00:43:46.000Z,273.4
2023-01-25T00:45:10.000Z,273.34
2023-01-25T00:47:14.000Z,273.34
2023-01-25T00:48:38.000Z,273.34
2023-01-25T00:50:42.000Z,273.34
2023-01-25T00:52:06.000Z,273.34
2023-01-25T00:54:10.000Z,273.34
2023-01-25T00:55:34.000Z,273.4
2023-01-25T00:57:38.000Z,273.4
2023-01-25T00:59:03.000Z,273.4
2023-01-25T01:01:06.000Z,273.34
2023-01-25T01:02:31.000Z,273.34
2023-01-25T01:04:35.000Z,273.4
2023-01-25T01:05:59.000Z,273.34
2023-01-25T01:08:03.000Z,273.34
2023-01-25T01:09:27.000Z,273.4
2023-01-25T01:11:31.000Z,273.4
2023-01-25T01:12:56.000Z,273.4
2023-01-25T01:14:59.000Z,273.4
2023-01-25T01:17:48.000Z,273.4
2023-01-25T01:19:13.000Z,273.4
2023-01-25T01:21:16.000Z,273.4
2023-01-25T01:22:41.000Z,273.4
2023-01-25T01:24:44.000Z,273.34
2023-01-25T01:26:09.000Z,273.4
2023-01-25T01:28:12.000Z,273.34
2023-01-25T01:29:37.000Z,273.4
2023-01-25T01:31:40.000Z,273.34
2023-01-25T01:33:05.000Z,273.34
2023-01-25T01:35:09.000Z,273.34
2023-01-25T01:36:33.000Z,273.34
2023-01-25T01:38:37.000Z,273.34
2023-01-25T01:40:01.000Z,273.34
2023-01-25T01:42:05.000Z,273.34
2023-01-25T01:43:29.000Z,273.34
2023-01-25T01:45:33.000Z,273.34
2023-01-25T01:46:58.000Z,273.34
2023-01-25T01:49:01.000Z,273.34
2023-01-25T01:50:26.000Z,273.34
2023-01-25T01:52:29.000Z,273.27
2023-01-25T01:56:51.000Z,273.27
2023-01-25T01:58:54.000Z,273.27
2023-01-25T02:00:18.000Z,273.34
2023-01-25T02:02:22.000Z,273.34
2023-01-25T02:03:46.000Z,273.34
2023-01-25T02:05:50.000Z,273.34
2023-01-25T02:07:14.000Z,273.34
2023-01-25T02:09:18.000Z,273.27
2023-01-25T02:10:42.000Z,273.34
2023-01-25T02:12:46.000Z,273.21
2023-01-25T02:14:10.000Z,273.21
2023-01-25T02:16:14.000Z,273.27
2023-01-25T02:17:38.000Z,273.27
2023-01-25T02:19:42.000Z,273.27
2023-01-25T02:21:06.000Z,273.34
2023-01-25T02:23:09.000Z,273.27
2023-01-25T02:24:34.000Z,273.27
2023-01-25T02:26:37.000Z,273.21
2023-01-25T02:28:02.000Z,273.21
2023-01-25T02:30:05.000Z,273.21
2023-01-25T02:31:30.000Z,273.21
2023-01-25T02:33:34.000Z,273.15
2023-01-25T02:36:23.000Z,273.21
2023-01-25T02:37:47.000Z,273.21
2023-01-25T02:39:51.000Z,273.21
2023-01-25T02:41:15.000Z,273.21
2023-01-25T02:43:19.000Z,273.21
2023-01-25T02:44:43.000Z,273.21
2023-01-25T02:46:47.000Z,273.21
2023-01-25T02:48:11.000Z,273.21
2023-01-25T02:50:14.000Z,273.21
2023-01-25T02:51:39.000Z,273.21
2023-01-25T02:53:42.000Z,273.21
2023-01-25T02:55:07.000Z,273.21
2023-01-25T02:57:11.000Z,273.21
2023-01-25T02:58:35.000Z,273.21
2023-01-25T03:00:39.000Z,273.21
2023-01-25T03:02:03.000Z,273.21
2023-01-25T03:04:07.000Z,273.21
2023-01-25T03:05:31.000Z,273.21
2023-01-25T03:07:35.000Z,273.15
2023-01-25T03:08:59.000Z,273.21
2023-01-25T03:11:03.000Z,273.21
2023-01-25T03:13:52.000Z,273.15
2023-01-25T03:15:16.000Z,273.21
2023-01-25T03:17:20.000Z,273.21
2023-01-25T03:18:44.000Z,273.21
2023-01-25T03:20:48.000Z,273.21
2023-01-25T03:22:12.000Z,273.21
2023-01-25T03:24:16.000Z,273.21
2023-01-25T03:25:40.000Z,273.21
2023-01-25T03:27:44.000Z,273.21
2023-01-25T03:29:08.000Z,273.15
2023-01-25T03:31:12.000Z,273.15
2023-01-25T03:32:37.000Z,273.09
2023-01-25T03:34:40.000Z,273.09
2023-01-25T03:36:04.000Z,273.09
2023-01-25T03:38:08.000Z,273.09
2023-01-25T03:39:33.000Z,273.09
2023-01-25T03:41:37.000Z,273.02
2023-01-25T03:43:01.000Z,273.09
2023-01-25T03:45:05.000Z,273.02
2023-01-25T03:46:29.000Z,273.02
2023-01-25T03:48:33.000Z,273.02
2023-01-25T03:51:22.000Z,272.96
2023-01-25T03:52:47.000Z,272.96
2023-01-25T03:54:50.000Z,273.02
2023-01-25T03:56:15.000Z,273.09
2023-01-25T03:58:18.000Z,272.96
2023-01-25T03:59:42.000Z,273.02
2023-01-25T04:01:46.000Z,272.96
2023-01-25T04:03:10.000Z,273.02
2023-01-25T04:05:14.000Z,273.02
2023-01-25T04:06:38.000Z,273.09
2023-01-25T04:08:42.000Z,273.09
2023-01-25T04:10:06.000Z,273.09
2023-01-25T04:12:10.000Z,273.09
2023-01-25T04:13:35.000Z,273.09
2023-01-25T04:15:38.000Z,272.9
2023-01-25T04:17:03.000Z,272.9
2023-01-25T04:19:06.000Z,272.84
2023-01-25T04:20:31.000Z,272.77
2023-01-25T04:22:34.000Z,272.77
2023-01-25T04:23:59.000Z,272.77
2023-01-25T04:26:02.000Z,272.96
2023-01-25T04:28:52.000Z,272.9
2023-01-25T04:30:16.000Z,272.77
2023-01-25T04:32:19.000Z,272.96
2023-01-25T04:33:44.000Z,273.02
2023-01-25T04:35:48.000Z,272.9
2023-01-25T04:37:12.000Z,272.96
2023-01-25T04:39:15.000Z,272.9
2023-01-25T04:40:40.000Z,272.96
2023-01-25T04:42:43.000Z,273.02
2023-01-25T04:44:08.000Z,272.96
2023-01-25T04:46:11.000Z,273.02
2023-01-25T04:47:36.000Z,272.96
2023-01-25T04:49:39.000Z,273.02
2023-01-25T04:51:04.000Z,273.02
2023-01-25T04:53:07.000Z,273.09
2023-01-25T04:54:32.000Z,273.09
2023-01-25T04:56:35.000Z,273.02
2023-01-25T04:58:00.000Z,273.02
2023-01-25T05:00:03.000Z,273.02
2023-01-25T05:01:28.000Z,273.09
2023-01-25T05:03:31.000Z,273.02
2023-01-25T05:06:21.000Z,272.96
2023-01-25T05:07:45.000Z,273.02
2023-01-25T05:09:49.000Z,273.09
2023-01-25T05:11:13.000Z,273.09
2023-01-25T05:13:16.000Z,273.02
2023-01-25T05:14:41.000Z,273.09
2023-01-25T05:16:44.000Z,272.96
2023-01-25T05:18:09.000Z,272.9
2023-01-25T05:20:12.000Z,272.9
2023-01-25T05:21:37.000Z,272.84
2023-01-25T05:23:40.000Z,272.84
2023-01-25T05:25:05.000Z,272.84
2023-01-25T05:27:09.000Z,272.84
2023-01-25T05:28:34.000Z,272.84
2023-01-25T05:30:37.000Z,272.9
2023-01-25T05:32:02.000Z,272.9
2023-01-25T05:34:06.000Z,272.9
2023-01-25T05:35:30.000Z,272.9
2023-01-25T05:37:34.000Z,272.84
2023-01-25T05:38:58.000Z,272.9
2023-01-25T05:41:02.000Z,272.84
2023-01-25T05:43:51.000Z,272.84
2023-01-25T05:45:15.000Z,272.84
2023-01-25T05:47:19.000Z,272.9
2023-01-25T05:48:43.000Z,272.9
2023-01-25T05:50:46.000Z,272.84
2023-01-25T05:52:11.000Z,272.9
2023-01-25T05:54:14.000Z,272.84
2023-01-25T05:55:39.000Z,272.77
2023-01-25T05:57:42.000Z,272.71
2023-01-25T05:59:07.000Z,272.77
2023-01-25T06:01:10.000Z,272.77
2023-01-25T06:02:35.000Z,272.77
2023-01-25T06:04:38.000Z,272.77
2023-01-25T06:06:03.000Z,272.71
2023-01-25T06:08:06.000Z,272.77
2023-01-25T06:09:31.000Z,272.84
2023-01-25T06:11:34.000Z,272.71
2023-01-25T06:12:58.000Z,272.77
2023-01-25T06:15:02.000Z,272.84
2023-01-25T06:16:26.000Z,272.84
2023-01-25T06:18:30.000Z,272.77
2023-01-25T06:21:19.000Z,272.71
2023-01-25T06:22:44.000Z,272.77
2023-01-25T06:24:47.000Z,272.9
2023-01-25T06:26:11.000Z,272.9
2023-01-25T06:28:15.000Z,272.96
2023-01-25T06:29:39.000Z,272.96
2023-01-25T06:31:43.000Z,272.96
2023-01-25T06:33:07.000Z,272.96
2023-01-25T06:35:11.000Z,272.71
2023-01-25T06:36:35.000Z,272.77
2023-01-25T06:38:39.000Z,272.65
2023-01-25T06:40:03.000Z,272.59
2023-01-25T06:42:07.000Z,272.52
2023-01-25T06:43:31.000Z,272.65
2023-01-25T06:45:35.000Z,272.65
2023-01-25T06:46:59.000Z,272.59
2023-01-25T06:49:03.000Z,272.59
2023-01-25T06:50:27.000Z,272.59
2023-01-25T06:52:31.000Z,272.71
2023-01-25T06:53:55.000Z,272.65
2023-01-25T06:55:59.000Z,272.52
2023-01-25T07:00:20.000Z,272.65
2023-01-25T07:02:13.000Z,272.65
2023-01-25T07:03:38.000Z,272.71
2023-01-25T07:05:41.000Z,272.65
2023-01-25T07:07:06.000Z,272.59
2023-01-25T07:09:09.000Z,272.59
2023-01-25T07:10:34.000Z,272.52
2023-01-25T07:12:37.000Z,272.59
2023-01-25T07:14:01.000Z,272.59
2023-01-25T07:16:05.000Z,272.59
2023-01-25T07:17:29.000Z,272.65
2023-01-25T07:19:33.000Z,272.77
2023-01-25T07:20:57.000Z,272.77
2023-01-25T07:23:01.000Z,272.59
2023-01-25T07:24:25.000Z,272.59
2023-01-25T07:26:29.000Z,272.65
2023-01-25T07:27:53.000Z,272.77
2023-01-25T07:29:57.000Z,272.77
2023-01-25T07:31:21.000Z,272.77
2023-01-25T07:33:25.000Z,272.77
2023-01-25T07:34:49.000Z,272.71
2023-01-25T07:36:53.000Z,272.77
2023-01-25T07:41:14.000Z,272.71
2023-01-25T07:43:17.000Z,272.65
2023-01-25T07:44:42.000Z,272.65
2023-01-25T07:46:45.000Z,272.59
2023-01-25T07:48:10.000Z,272.65
2023-01-25T07:50:13.000Z,272.65
2023-01-25T07:51:38.000Z,272.65
2023-01-25T07:53:41.000Z,272.77
2023-01-25T07:55:06.000Z,272.77
2023-01-25T07:57:10.000Z,272.77
2023-01-25T07:58:34.000Z,272.71
2023-01-25T08:00:38.000Z,272.77
2023-01-25T08:02:02.000Z,272.77
2023-01-25T08:04:06.000Z,272.77
2023-01-25T08:05:30.000Z,272.84
2023-01-25T08:07:34.000Z,272.77
2023-01-25T08:08:58.000Z,272.77
2023-01-25T08:11:02.000Z,272.65
2023-01-25T08:12:26.000Z,272.59
2023-01-25T08:14:30.000Z,272.59
2023-01-25T08:15:54.000Z,272.52
2023-01-25T08:17:58.000Z,272.59
2023-01-25T08:20:47.000Z,272.65
2023-01-25T08:22:11.000Z,272.59
2023-01-25T08:24:15.000Z,272.52
2023-01-25T08:25:41.000Z,272.65
2023-01-25T08:27:45.000Z,272.65
2023-01-25T08:29:09.000Z,272.65
2023-01-25T08:31:13.000Z,272.77
2023-01-25T08:32:37.000Z,272.65
2023-01-25T08:34:41.000Z,272.59
2023-01-25T08:36:05.000Z,272.59
2023-01-25T08:38:09.000Z,272.52
2023-01-25T08:39:33.000Z,272.59
2023-01-25T08:41:37.000Z,272.77
2023-01-25T08:43:01.000Z,272.84
2023-01-25T08:45:04.000Z,272.9
2023-01-25T08:46:29.000Z,272.9
2023-01-25T08:48:33.000Z,272.84
2023-01-25T08:49:58.000Z,272.71
2023-01-25T08:52:01.000Z,272.65
2023-01-25T08:53:26.000Z,272.59
2023-01-25T08:55:29.000Z,272.59
2023-01-25T08:58:19.000Z,272.59
2023-01-25T08:59:43.000Z,272.52
2023-01-25T09:01:47.000Z,272.4
2023-01-25T09:03:11.000Z,272.4
2023-01-25T09:05:15.000Z,272.34
2023-01-25T09:06:39.000Z,272.34
2023-01-25T09:08:43.000Z,272.34
2023-01-25T09:10:07.000Z,272.46
2023-01-25T09:12:12.000Z,272.65
2023-01-25T09:13:36.000Z,272.65
2023-01-25T09:15:40.000Z,272.65
2023-01-25T09:17:04.000Z,272.59
2023-01-25T09:19:07.000Z,272.71
2023-01-25T09:20:32.000Z,272.71
2023-01-25T09:22:36.000Z,272.65
2023-01-25T09:24:00.000Z,272.65
2023-01-25T09:26:09.000Z,272.71
2023-01-25T09:27:34.000Z,272.77
2023-01-25T09:29:37.000Z,272.84
2023-01-25T09:31:06.000Z,272.9
2023-01-25T09:33:24.000Z,272.9
2023-01-25T09:37:45.000Z,272.77
2023-01-25T09:39:43.000Z,272.71
2023-01-25T09:41:08.000Z,272.65
2023-01-25T09:43:11.000Z,272.71
2023-01-25T09:44:36.000Z,272.71
2023-01-25T09:46:39.000Z,272.77
2023-01-25T09:48:04.000Z,272.77
2023-01-25T09:50:07.000Z,272.84
2023-01-25T09:51:32.000Z,272.9
2023-01-25T09:53:36.000Z,272.9
2023-01-25T09:55:00.000Z,272.84
2023-01-25T09:57:04.000Z,272.84
2023-01-25T09:58:28.000Z,272.77
2023-01-25T10:00:32.000Z,272.77
2023-01-25T10:01:56.000Z,272.77
2023-01-25T10:04:00.000Z,272.84
2023-01-25T10:05:25.000Z,272.9
2023-01-25T10:07:28.000Z,272.84
2023-01-25T10:08:52.000Z,272.9
2023-01-25T10:10:56.000Z,272.9
2023-01-25T10:12:20.000Z,272.96
2023-01-25T10:14:24.000Z,272.96
2023-01-25T10:17:13.000Z,272.9
2023-01-25T10:18:38.000Z,272.96
2023-01-25T10:20:41.000Z,272.9
2023-01-25T10:22:05.000Z,272.9
2023-01-25T10:24:09.000Z,272.71
2023-01-25T10:25:33.000Z,272.77
2023-01-25T10:27:37.000Z,272.84
2023-01-25T10:29:01.000Z,272.9
2023-01-25T10:31:05.000Z,272.9
2023-01-25T10:32:30.000Z,272.77
2023-01-25T10:34:33.000Z,272.59
2023-01-25T10:36:16.000Z,272.52
2023-01-25T10:38:20.000Z,272.46
2023-01-25T10:39:44.000Z,272.52
2023-01-25T10:41:48.000Z,272.46
2023-01-25T10:43:12.000Z,272.46
2023-01-25T10:45:16.000Z,272.46
2023-01-25T10:46:40.000Z,272.52
2023-01-25T10:48:44.000Z,272.46
2023-01-25T10:50:08.000Z,272.46
2023-01-25T10:52:12.000Z,272.46
2023-01-25T10:55:01.000Z,272.52
2023-01-25T10:56:26.000Z,272.59
2023-01-25T10:58:29.000Z,272.77
2023-01-25T10:59:54.000Z,272.84
2023-01-25T11:01:57.000Z,272.9
2023-01-25T11:03:22.000Z,272.9
2023-01-25T11:05:25.000Z,272.9
2023-01-25T11:06:49.000Z,272.96
2023-01-25T11:08:53.000Z,272.96
2023-01-25T11:10:17.000Z,272.96
2023-01-25T11:12:21.000Z,272.96
2023-01-25T11:13:45.000Z,272.9
2023-01-25T11:15:49.000Z,272.96
2023-01-25T11:17:13.000Z,273.02
2023-01-25T11:19:17.000Z,273.09
2023-01-25T11:20:41.000Z,273.09
2023-01-25T11:22:45.000Z,273.09
2023-01-25T11:24:09.000Z,272.96
2023-01-25T11:26:13.000Z,272.9
2023-01-25T11:27:38.000Z,273.02
2023-01-25T11:29:42.000Z,273.02
2023-01-25T11:34:03.000Z,273.09
2023-01-25T11:36:10.000Z,273.09
2023-01-25T11:38:16.000Z,273.09
2023-01-25T11:38:50.000Z,273.09
2023-01-25T11:40:14.000Z,273.09
2023-01-25T11:42:18.000Z,273.09
2023-01-25T11:43:42.000Z,273.09
2023-01-25T11:45:46.000Z,273.02
2023-01-25T11:47:10.000Z,273.02
2023-01-25T11:49:14.000Z,272.96
2023-01-25T11:50:38.000Z,272.9
2023-01-25T11:52:42.000Z,272.96
2023-01-25T11:54:06.000Z,272.96
2023-01-25T11:56:10.000Z,273.02
2023-01-25T11:57:34.000Z,273.02
2023-01-25T11:59:38.000Z,273.09
2023-01-25T12:01:02.000Z,273.02
2023-01-25T12:03:06.000Z,273.09
2023-01-25T12:04:30.000Z,273.09
2023-01-25T12:06:34.000Z,273.09
2023-01-25T12:07:58.000Z,273.02
2023-01-25T12:10:02.000Z,273.02
2023-01-25T12:11:26.000Z,273.02
2023-01-25T12:13:30.000Z,273.09
2023-01-25T12:16:01.000Z,272.9
2023-01-25T12:17:25.000Z,272.9
2023-01-25T12:19:29.000Z,272.96
2023-01-25T12:20:53.000Z,272.96
2023-01-25T12:22:57.000Z,272.77
2023-01-25T12:24:21.000Z,272.9
2023-01-25T12:26:25.000Z,272.9
2023-01-25T12:27:50.000Z,272.84
2023-01-25T12:29:53.000Z,272.84
2023-01-25T12:31:18.000Z,272.96
2023-01-25T12:33:21.000Z,272.96
2023-01-25T12:34:46.000Z,272.9
2023-01-25T12:36:49.000Z,272.96
2023-01-25T12:38:14.000Z,273.02
2023-01-25T12:40:17.000Z,272.96
2023-01-25T12:41:42.000Z,272.96
2023-01-25T12:43:45.000Z,272.96
2023-01-25T12:45:10.000Z,273.02
2023-01-25T12:47:13.000Z,273.02
2023-01-25T12:48:38.000Z,272.9
2023-01-25T12:50:41.000Z,272.9
2023-01-25T12:53:30.000Z,272.84
2023-01-25T12:54:55.000Z,272.71
2023-01-25T12:56:58.000Z,272.65
2023-01-25T12:58:23.000Z,272.71
2023-01-25T13:00:39.000Z,272.65
2023-01-25T13:02:04.000Z,272.65
2023-01-25T13:04:07.000Z,272.71
2023-01-25T13:05:31.000Z,272.9
2023-01-25T13:07:35.000Z,272.96
2023-01-25T13:08:59.000Z,273.02
2023-01-25T13:11:03.000Z,273.09
2023-01-25T13:12:27.000Z,273.09
2023-01-25T13:14:31.000Z,273.09
2023-01-25T13:15:55.000Z,273.02
2023-01-25T13:17:59.000Z,273.02
2023-01-25T13:19:23.000Z,273.02
2023-01-25T13:21:27.000Z,272.96
2023-01-25T13:22:51.000Z,272.96
2023-01-25T13:24:55.000Z,272.71
2023-01-25T13:26:19.000Z,272.65
2023-01-25T13:28:23.000Z,272.71
2023-01-25T13:31:12.000Z,272.71
2023-01-25T13:32:37.000Z,272.84
2023-01-25T13:34:40.000Z,272.84
2023-01-25T13:36:05.000Z,272.9
2023-01-25T13:38:08.000Z,273.02
2023-01-25T13:39:33.000Z,273.02
2023-01-25T13:41:36.000Z,273.09
2023-01-25T13:43:01.000Z,273.09
2023-01-25T13:45:04.000Z,273.15
2023-01-25T13:46:29.000Z,273.09
2023-01-25T13:48:32.000Z,273.09
2023-01-25T13:50:00.000Z,273.09
2023-01-25T13:52:04.000Z,273.02
2023-01-25T13:53:28.000Z,273.09
2023-01-25T13:55:32.000Z,273.02
2023-01-25T13:56:56.000Z,273.02
2023-01-25T13:59:00.000Z,273.09
2023-01-25T14:00:24.000Z,273.09
2023-01-25T14:02:28.000Z,273.09
2023-01-25T14:03:52.000Z,273.09
2023-01-25T14:05:56.000Z,273.15
2023-01-25T14:08:45.000Z,273.15
2023-01-25T14:10:09.000Z,273.09
2023-01-25T14:12:14.000Z,273.02
2023-01-25T14:13:38.000Z,273.02
2023-01-25T14:15:41.000Z,273.09
2023-01-25T14:17:06.000Z,273.02
2023-01-25T14:19:10.000Z,272.96
2023-01-25T14:20:34.000Z,272.96
2023-01-25T14:22:38.000Z,272.9
2023-01-25T14:24:02.000Z,272.96
2023-01-25T14:26:05.000Z,273.02
2023-01-25T14:27:30.000Z,273.02
2023-01-25T14:29:34.000Z,273.02
2023-01-25T14:30:58.000Z,273.02
2023-01-25T14:33:02.000Z,273.09
2023-01-25T14:34:26.000Z,273.09
2023-01-25T14:36:30.000Z,272.9
2023-01-25T14:37:54.000Z,273.02
2023-01-25T14:39:58.000Z,272.96
2023-01-25T14:41:22.000Z,273.02
2023-01-25T14:43:26.000Z,273.02
2023-01-25T14:46:15.000Z,273.02
2023-01-25T14:47:40.000Z,273.02
2023-01-25T14:49:49.000Z,272.96
2023-01-25T14:51:14.000Z,272.96
2023-01-25T14:53:17.000Z,273.02
2023-01-25T14:54:41.000Z,273.09
2023-01-25T14:56:45.000Z,272.96
2023-01-25T14:58:09.000Z,273.02
2023-01-25T15:00:13.000Z,272.96
2023-01-25T15:01:37.000Z,272.96
2023-01-25T15:03:41.000Z,272.77
2023-01-25T15:05:05.000Z,272.71
2023-01-25T15:07:17.000Z,272.77
2023-01-25T15:08:41.000Z,272.84
2023-01-25T15:10:45.000Z,272.77
2023-01-25T15:12:09.000Z,272.77
2023-01-25T15:14:12.000Z,272.77
2023-01-25T15:15:37.000Z,272.77
2023-01-25T15:17:40.000Z,272.71
2023-01-25T15:19:05.000Z,272.77
2023-01-25T15:21:08.000Z,272.77
2023-01-25T15:23:57.000Z,272.84
2023-01-25T15:25:22.000Z,272.9
2023-01-25T15:27:26.000Z,272.84
2023-01-25T15:28:50.000Z,272.84
2023-01-25T15:30:54.000Z,272.84
2023-01-25T15:32:19.000Z,272.77
2023-01-25T15:34:22.000Z,272.77
2023-01-25T15:35:46.000Z,272.84
2023-01-25T15:37:50.000Z,272.77
2023-01-25T15:39:14.000Z,272.77
2023-01-25T15:41:18.000Z,272.59
2023-01-25T15:42:42.000Z,272.52
2023-01-25T15:44:46.000Z,272.59
2023-01-25T15:46:10.000Z,272.4
2023-01-25T15:48:14.000Z,272.4
2023-01-25T15:49:38.000Z,272.4
2023-01-25T15:51:42.000Z,272.4
2023-01-25T15:53:06.000Z,272.46
2023-01-25T15:55:10.000Z,272.46
2023-01-25T15:56:34.000Z,272.46
2023-01-25T15:58:37.000Z,272.46
2023-01-25T16:01:27.000Z,272.4
2023-01-25T16:02:51.000Z,272.46
2023-01-25T16:04:55.000Z,272.46
2023-01-25T16:06:19.000Z,272.46
2023-01-25T16:08:23.000Z,272.52
2023-01-25T16:09:47.000Z,272.59
2023-01-25T16:11:50.000Z,272.59
2023-01-25T16:13:15.000Z,272.59
2023-01-25T16:15:18.000Z,272.59
2023-01-25T16:16:43.000Z,272.65
2023-01-25T16:18:46.000Z,272.59
2023-01-25T16:20:11.000Z,272.59
2023-01-25T16:22:14.000Z,272.52
2023-01-25T16:23:39.000Z,272.52
2023-01-25T16:25:42.000Z,272.52
2023-01-25T16:27:07.000Z,272.65
2023-01-25T16:29:10.000Z,272.52
2023-01-25T16:30:35.000Z,272.46
2023-01-25T16:32:39.000Z,272.59
2023-01-25T16:34:03.000Z,272.65
2023-01-25T16:36:07.000Z,272.71
2023-01-25T16:38:56.000Z,272.77
2023-01-25T16:40:20.000Z,272.84
2023-01-25T16:42:24.000Z,272.65
2023-01-25T16:43:48.000Z,272.65
2023-01-25T16:45:52.000Z,272.46
2023-01-25T16:47:16.000Z,272.46
2023-01-25T16:49:20.000Z,272.46
2023-01-25T16:50:44.000Z,272.46
2023-01-25T16:52:48.000Z,272.34
2023-01-25T16:54:12.000Z,272.34
2023-01-25T16:56:16.000Z,272.27
2023-01-25T16:57:40.000Z,272.27
2023-01-25T16:59:44.000Z,272.21
2023-01-25T17:01:08.000Z,272.15
2023-01-25T17:03:12.000Z,272.15
2023-01-25T17:04:36.000Z,272.21
2023-01-25T17:06:40.000Z,272.21
2023-01-25T17:08:04.000Z,272.21
2023-01-25T17:10:08.000Z,272.15
2023-01-25T17:11:33.000Z,272.21
2023-01-25T17:13:36.000Z,272.21
2023-01-25T17:16:25.000Z,272.15
2023-01-25T17:17:50.000Z,272.15
2023-01-25T17:19:53.000Z,272.15
2023-01-25T17:21:18.000Z,272.21
2023-01-25T17:23:21.000Z,272.15
2023-01-25T17:24:46.000Z,272.02
2023-01-25T17:26:49.000Z,272.09
2023-01-25T17:28:14.000Z,272.02
2023-01-25T17:30:17.000Z,272.09
2023-01-25T17:31:42.000Z,272.02
2023-01-25T17:33:46.000Z,272.02
2023-01-25T17:35:10.000Z,272.02
2023-01-25T17:37:14.000Z,272.02
2023-01-25T17:38:38.000Z,272.02
2023-01-25T17:40:41.000Z,272.02
2023-01-25T17:42:06.000Z,272.09
2023-01-25T17:44:09.000Z,272.09
2023-01-25T17:45:34.000Z,272.02
2023-01-25T17:47:37.000Z,272.02
2023-01-25T17:49:02.000Z,272.09
2023-01-25T17:51:05.000Z,272.09
2023-01-25T17:53:55.000Z,272.15
2023-01-25T17:55:19.000Z,272.27
2023-01-25T17:57:23.000Z,272.21
2023-01-25T17:58:47.000Z,272.15
2023-01-25T18:00:51.000Z,272.15
2023-01-25T18:02:27.000Z,272.15
2023-01-25T18:04:31.000Z,272.09
2023-01-25T18:05:55.000Z,272.09
2023-01-25T18:07:59.000Z,272.02
2023-01-25T18:09:23.000Z,272.02
2023-01-25T18:11:26.000Z,272.02
2023-01-25T18:12:51.000Z,272.02
2023-01-25T18:15:06.000Z,271.96
2023-01-25T18:16:31.000Z,272.15
2023-01-25T18:18:35.000Z,272.02
2023-01-25T18:19:59.000Z,272.15
2023-01-25T18:22:03.000Z,272.02
2023-01-25T18:23:27.000Z,272.09
2023-01-25T18:25:31.000Z,272.02
2023-01-25T18:26:55.000Z,272.15
2023-01-25T18:30:33.000Z,272.09
2023-01-25T18:32:27.000Z,272.15
2023-01-25T18:33:52.000Z,272.09
2023-01-25T18:35:55.000Z,271.96
2023-01-25T18:37:20.000Z,272.02
2023-01-25T18:39:23.000Z,271.96
2023-01-25T18:40:47.000Z,272.02
2023-01-25T18:42:51.000Z,271.96
2023-01-25T18:44:15.000Z,272.02
2023-01-25T18:46:19.000Z,271.96
2023-01-25T18:47:43.000Z,271.96
2023-01-25T18:49:47.000Z,272.09
2023-01-25T18:51:11.000Z,272.09
2023-01-25T18:53:15.000Z,272.02
2023-01-25T18:54:40.000Z,272.09
2023-01-25T18:56:43.000Z,272.15
2023-01-25T18:58:07.000Z,272.09
2023-01-25T19:00:11.000Z,271.96
2023-01-25T19:01:35.000Z,271.96
2023-01-25T19:03:39.000Z,271.96
2023-01-25T19:07:07.000Z,271.96
2023-01-25T19:09:56.000Z,271.96
2023-01-25T19:11:20.000Z,271.96
2023-01-25T19:13:24.000Z,272.02
2023-01-25T19:14:48.000Z,272.02
2023-01-25T19:16:52.000Z,272.15
2023-01-25T19:18:16.000Z,272.15
2023-01-25T19:20:19.000Z,272.09
2023-01-25T19:21:44.000Z,272.09
2023-01-25T19:23:47.000Z,272.02
2023-01-25T19:25:12.000Z,272.09
2023-01-25T19:27:15.000Z,272.09
2023-01-25T19:28:40.000Z,271.96
2023-01-25T19:30:43.000Z,272.02
2023-01-25T19:32:08.000Z,271.96
2023-01-25T19:34:11.000Z,271.9
2023-01-25T19:35:35.000Z,271.9
2023-01-25T19:37:39.000Z,271.9
2023-01-25T19:39:03.000Z,271.9
2023-01-25T19:41:07.000Z,271.9
2023-01-25T19:42:31.000Z,271.9
2023-01-25T19:44:35.000Z,271.9
2023-01-25T19:47:24.000Z,271.77
2023-01-25T19:48:48.000Z,271.84
2023-01-25T19:50:52.000Z,271.84
2023-01-25T19:52:16.000Z,271.77
2023-01-25T19:54:20.000Z,271.77
2023-01-25T19:55:44.000Z,271.71
2023-01-25T19:57:47.000Z,271.71
2023-01-25T19:59:12.000Z,271.71
2023-01-25T20:01:15.000Z,271.77
2023-01-25T20:02:40.000Z,271.84
2023-01-25T20:04:43.000Z,271.9
2023-01-25T20:06:08.000Z,271.9
2023-01-25T20:08:11.000Z,271.9
2023-01-25T20:09:36.000Z,271.9
2023-01-25T20:11:39.000Z,271.96
2023-01-25T20:13:04.000Z,271.9
2023-01-25T20:15:07.000Z,271.96
2023-01-25T20:16:35.000Z,271.96
2023-01-25T20:18:39.000Z,271.9
2023-01-25T20:20:03.000Z,271.9
2023-01-25T20:22:07.000Z,271.9
2023-01-25T20:24:56.000Z,271.84
2023-01-25T20:26:20.000Z,271.84
2023-01-25T20:28:23.000Z,271.84
2023-01-25T20:29:48.000Z,271.9
2023-01-25T20:31:51.000Z,271.9
2023-01-25T20:33:16.000Z,271.9
2023-01-25T20:35:19.000Z,271.9
2023-01-25T20:36:44.000Z,271.84
2023-01-25T20:38:47.000Z,271.9
2023-01-25T20:40:12.000Z,271.9
2023-01-25T20:42:15.000Z,271.84
2023-01-25T20:43:39.000Z,271.77
2023-01-25T20:45:43.000Z,271.77
2023-01-25T20:47:07.000Z,271.77
2023-01-25T20:49:11.000Z,271.71
2023-01-25T20:50:35.000Z,271.71
2023-01-25T20:52:39.000Z,271.71
2023-01-25T20:54:03.000Z,271.77
2023-01-25T20:56:07.000Z,271.71
2023-01-25T20:57:31.000Z,271.65
2023-01-25T20:59:35.000Z,271.59
2023-01-25T21:02:24.000Z,271.52
2023-01-25T21:03:48.000Z,271.52
2023-01-25T21:05:52.000Z,271.46
2023-01-25T21:07:16.000Z,271.46
2023-01-25T21:09:20.000Z,271.4
2023-01-25T21:10:44.000Z,271.4
2023-01-25T21:12:48.000Z,271.4
2023-01-25T21:14:12.000Z,271.4
2023-01-25T21:16:16.000Z,271.46
2023-01-25T21:17:40.000Z,271.4
2023-01-25T21:19:44.000Z,271.46
2023-01-25T21:21:08.000Z,271.46
2023-01-25T21:23:12.000Z,271.46
2023-01-25T21:24:36.000Z,271.4
2023-01-25T21:26:40.000Z,271.4
2023-01-25T21:28:04.000Z,271.4
2023-01-25T21:30:08.000Z,271.34
2023-01-25T21:31:32.000Z,271.46
2023-01-25T21:33:36.000Z,271.46
2023-01-25T21:35:00.000Z,271.4
2023-01-25T21:37:04.000Z,271.4
2023-01-25T21:39:53.000Z,271.4
2023-01-25T21:41:17.000Z,271.34
2023-01-25T21:43:21.000Z,271.27
2023-01-25T21:44:45.000Z,271.27
2023-01-25T21:46:49.000Z,271.27
2023-01-25T21:48:50.000Z,271.21
2023-01-25T21:50:54.000Z,271.34
2023-01-25T21:52:18.000Z,271.34
2023-01-25T21:54:22.000Z,271.34
2023-01-25T21:55:46.000Z,271.34
2023-01-25T21:57:50.000Z,271.4
2023-01-25T21:59:14.000Z,271.34
2023-01-25T22:01:18.000Z,271.27
2023-01-25T22:02:42.000Z,271.34
2023-01-25T22:04:46.000Z,271.34
2023-01-25T22:06:10.000Z,271.27
2023-01-25T22:08:14.000Z,271.27
2023-01-25T22:09:38.000Z,271.27
2023-01-25T22:11:42.000Z,271.21
2023-01-25T22:13:06.000Z,271.27
2023-01-25T22:15:10.000Z,271.27
2023-01-25T22:17:59.000Z,271.21
2023-01-25T22:19:23.000Z,271.21
2023-01-25T22:21:27.000Z,271.15
2023-01-25T22:22:51.000Z,271.15
2023-01-25T22:24:55.000Z,271.21
2023-01-25T22:26:19.000Z,271.27
2023-01-25T22:28:23.000Z,271.21
2023-01-25T22:29:47.000Z,271.21
2023-01-25T22:31:50.000Z,271.21
2023-01-25T22:33:15.000Z,271.21
2023-01-25T22:35:19.000Z,271.21
2023-01-25T22:36:43.000Z,271.21